Time;durP1;ratioP1;P1;durP2;ratioP2;P2;SDS_P1;SDS_P2;PMS_P1;PMS_P2;Temp;Humidity;BMP_temperature;BMP_pressure;BME280_temperature;BME280_humidity;BME280_pressure;Samples;Min_cycle;Max_cycle;Signal;HPM_P1;HPM_P2
2023/03/22 00:01:11;;;;;;;2.17;2.07;;;11.30;99.90;;;11.39;70.82;94628.66;5002038;28;20552;-56
2023/03/22 00:03:38;;;;;;;2.60;2.40;;;11.30;99.90;;;11.39;70.85;94623.38;5003496;28;21198;-58
2023/03/22 00:06:07;;;;;;;2.60;2.40;;;11.30;99.90;;;11.39;70.70;94620.75;5004148;28;20478;-56
2023/03/22 00:08:38;;;;;;;3.50;2.33;;;11.30;99.90;;;11.38;71.58;94616.44;5007366;28;20560;-56
2023/03/22 00:11:06;;;;;;;2.80;2.60;;;11.20;99.90;;;11.37;71.43;94616.59;5000514;28;21180;-57
2023/03/22 00:13:33;;;;;;;3.93;2.47;;;11.20;99.90;;;11.36;71.54;94617.59;4997826;28;20474;-57
2023/03/22 00:16:01;;;;;;;2.30;2.20;;;11.20;99.90;;;11.34;71.27;94623.03;5017629;28;20503;-56
2023/03/22 00:18:30;;;;;;;2.47;2.37;;;11.20;99.90;;;11.34;71.28;94620.38;5002924;28;20480;-57
2023/03/22 00:20:58;;;;;;;5.37;2.20;;;11.20;99.90;;;11.35;71.39;94623.84;5009962;28;20498;-55
2023/03/22 00:23:26;;;;;;;4.50;2.53;;;11.20;99.90;;;11.35;71.56;94622.03;5012192;28;20487;-54
2023/03/22 00:25:54;;;;;;;2.10;2.00;;;11.20;99.90;;;11.35;71.63;94622.03;5017698;28;20461;-58
2023/03/22 00:28:22;;;;;;;11.00;2.97;;;11.20;99.90;;;11.36;71.36;94621.06;5001620;28;20478;-56
2023/03/22 00:30:53;;;;;;;2.93;2.73;;;11.20;99.90;;;11.36;71.44;94607.06;5010510;28;20465;-57
2023/03/22 00:33:20;;;;;;;5.43;2.50;;;11.20;99.90;;;11.34;71.71;94607.22;5016745;28;20534;-55
2023/03/22 00:35:58;;;;;;;3.63;3.37;;;11.20;99.90;;;11.34;71.99;94615.13;5008188;28;20469;-54
2023/03/22 00:38:32;;;;;;;3.10;2.90;;;11.20;99.90;;;11.34;72.05;94609.00;5004412;28;20473;-57
2023/03/22 00:41:07;;;;;;;3.23;3.03;;;11.20;99.90;;;11.32;72.06;94614.41;5021170;28;20463;-55
2023/03/22 00:43:34;;;;;;;3.70;3.33;;;11.20;99.90;;;11.32;71.96;94614.41;5009040;28;20493;-56
2023/03/22 00:46:01;;;;;;;4.43;3.33;;;11.20;99.90;;;11.32;72.22;94606.53;5011101;28;20831;-56
2023/03/22 00:48:28;;;;;;;4.23;3.83;;;11.20;99.90;;;11.30;72.36;94605.84;5017034;28;20464;-54
2023/03/22 00:50:58;;;;;;;5.77;4.50;;;11.20;99.90;;;11.29;72.30;94602.41;5008865;28;20631;-57
2023/03/22 00:53:27;;;;;;;5.43;4.50;;;11.20;99.90;;;11.30;71.99;94605.84;5002619;28;20488;-55
2023/03/22 00:55:56;;;;;;;4.30;4.00;;;11.20;99.90;;;11.28;71.93;94606.00;5011651;28;20466;-53
2023/03/22 00:58:23;;;;;;;7.43;5.07;;;11.20;99.90;;;11.27;72.35;94604.34;5020216;28;20466;-55
2023/03/22 01:00:51;;;;;;;7.80;5.00;;;11.20;99.90;;;11.27;72.27;94596.44;5013699;28;20454;-57
2023/03/22 01:03:20;;;;;;;5.17;4.77;;;11.10;99.90;;;11.27;72.14;94591.19;5010747;28;20577;-57
2023/03/22 01:05:49;;;;;;;4.80;4.40;;;11.20;99.90;;;11.27;72.02;94596.44;5010971;28;20470;-56
2023/03/22 01:08:17;;;;;;;6.47;5.20;;;11.20;99.90;;;11.27;72.06;94595.63;5003778;28;20472;-56
2023/03/22 01:10:45;;;;;;;4.70;4.30;;;11.20;99.90;;;11.24;72.25;94593.28;5011079;28;20514;-58
2023/03/22 01:13:12;;;;;;;3.97;3.67;;;11.10;99.90;;;11.24;72.50;94599.38;4991919;28;20678;-57
2023/03/22 01:15:40;;;;;;;9.93;3.93;;;11.10;99.90;;;11.23;72.32;94589.84;4990484;28;20466;-54
2023/03/22 01:18:07;;;;;;;3.17;3.07;;;11.10;99.90;;;11.23;72.36;94589.00;5004007;28;21004;-55
2023/03/22 01:20:35;;;;;;;3.33;3.13;;;11.10;99.90;;;11.21;72.24;94586.50;5016770;28;20445;-56
2023/03/22 01:23:02;;;;;;;4.27;3.90;;;11.10;99.90;;;11.19;72.49;94592.94;5005746;28;20584;-56
2023/03/22 01:25:31;;;;;;;3.13;2.93;;;11.10;99.90;;;11.18;72.32;94591.25;5000816;28;20461;-58
2023/03/22 01:28:01;;;;;;;2.73;2.63;;;11.10;99.90;;;11.17;72.13;94579.91;5012747;28;20505;-56
2023/03/22 01:30:28;;;;;;;6.17;3.07;;;11.10;99.90;;;11.17;72.29;94579.91;5006193;28;21063;-55
2023/03/22 01:32:55;;;;;;;3.50;3.27;;;11.00;99.90;;;11.17;72.01;94579.06;4982380;28;20492;-53
2023/03/22 01:35:23;;;;;;;3.90;2.73;;;11.10;99.90;;;11.17;72.05;94579.91;4981067;28;20466;-55
2023/03/22 01:37:50;;;;;;;3.90;3.50;;;11.10;99.90;;;11.19;71.97;94577.13;4984102;28;20478;-56
2023/03/22 01:40:17;;;;;;;3.63;3.33;;;11.00;99.90;;;11.19;72.00;94579.75;4983485;28;20466;-56
2023/03/22 01:42:46;;;;;;;3.20;3.00;;;11.10;99.90;;;11.19;71.68;94577.13;4982861;28;20581;-53
2023/03/22 01:45:39;;;;;;;4.17;3.90;;;11.10;99.90;;;11.16;72.07;94573.00;4982313;28;20450;-56
2023/03/22 01:48:23;;;;;;;4.17;3.87;;;11.00;99.90;;;11.15;72.48;94570.50;4981818;28;20482;-56
2023/03/22 01:51:02;;;;;;;5.13;4.40;;;11.00;99.90;;;11.11;71.73;94568.19;4985580;28;20476;-57
2023/03/22 01:53:30;;;;;;;4.50;4.20;;;11.00;99.90;;;11.08;72.04;94568.47;4982966;28;20491;-57
2023/03/22 01:55:57;;;;;;;4.67;4.20;;;11.00;99.90;;;11.07;71.22;94574.72;4983316;28;20486;-57
2023/03/22 01:58:26;;;;;;;6.13;3.80;;;11.00;99.90;;;11.05;71.97;94571.41;4980379;28;20489;-57
2023/03/22 02:00:53;;;;;;;5.00;4.13;;;10.90;99.90;;;11.05;71.88;94575.84;4981956;28;21104;-56
2023/03/22 02:03:26;;;;;;;4.70;4.30;;;10.90;99.90;;;11.04;72.12;94580.28;4981181;28;22016;-56
2023/03/22 02:05:54;;;;;;;6.33;3.37;;;10.90;99.90;;;11.05;72.28;94579.31;4981483;28;20469;-55
2023/03/22 02:08:22;;;;;;;3.67;3.00;;;10.90;99.90;;;11.04;71.89;94579.44;4981795;28;20477;-56
2023/03/22 02:10:49;;;;;;;2.80;2.60;;;10.90;99.90;;;11.02;71.76;94587.50;4983623;28;20489;-57
2023/03/22 02:13:37;;;;;;;5.83;2.97;;;10.90;99.90;;;11.01;71.96;94579.75;4987938;28;22029;-56
2023/03/22 02:16:13;;;;;;;2.63;2.43;;;10.90;99.90;;;10.99;71.89;94577.28;4981975;28;20568;-55
2023/03/22 02:18:53;;;;;;;3.30;3.00;;;10.90;99.90;;;10.99;72.02;94576.44;4981155;28;22266;-54
2023/03/22 02:21:47;;;;;;;2.70;2.43;;;10.90;99.90;;;10.98;72.23;94577.41;4982575;28;20449;-56
2023/03/22 02:25:04;;;;;;;3.00;2.80;;;10.90;99.90;;;10.97;71.94;94578.38;4984595;28;20449;-56
2023/03/22 02:27:52;;;;;;;2.53;2.40;;;10.80;99.90;;;10.95;71.90;94575.91;4945602;28;20494;-57
2023/03/22 02:31:07;;;;;;;2.30;2.20;;;10.80;99.90;;;10.92;71.49;94581.47;4981977;28;20541;-56
2023/03/22 02:34:14;;;;;;;2.60;2.40;;;10.80;99.90;;;10.89;71.75;94584.38;4982349;28;20496;-57
2023/03/22 02:37:22;;;;;;;2.67;2.47;;;10.80;99.90;;;10.88;72.22;94588.03;4981248;28;20481;-56
2023/03/22 02:39:51;;;;;;;2.83;2.63;;;10.80;99.90;;;10.86;71.92;94585.53;4982391;28;20519;-56
2023/03/22 02:42:34;;;;;;;2.67;2.50;;;10.70;99.90;;;10.86;71.92;94590.78;4985424;28;20726;-54
2023/03/22 02:45:05;;;;;;;4.73;2.20;;;10.70;99.90;;;10.86;72.23;94592.56;4981180;28;20461;-55
2023/03/22 02:47:38;;;;;;;2.87;2.63;;;10.70;99.90;;;10.86;72.21;94590.78;4981886;28;20481;-53
2023/03/22 02:50:10;;;;;;;3.07;2.70;;;10.70;99.90;;;10.84;71.93;94592.72;4981632;28;20458;-57
2023/03/22 02:52:40;;;;;;;6.27;3.30;;;10.70;99.90;;;10.84;71.76;94595.34;4983382;28;21037;-56
2023/03/22 02:55:11;;;;;;;4.63;3.67;;;10.70;99.90;;;10.84;71.92;94598.00;4980275;28;20598;-55
2023/03/22 02:57:43;;;;;;;6.23;3.67;;;10.70;99.90;;;10.85;72.09;94596.22;4981977;28;21403;-56
2023/03/22 03:00:13;;;;;;;3.80;3.47;;;10.70;99.90;;;10.84;71.84;94589.28;4980065;28;20465;-57
2023/03/22 03:02:44;;;;;;;3.60;3.17;;;10.70;99.90;;;10.84;72.00;94598.00;4980779;28;20501;-56
2023/03/22 03:05:11;;;;;;;3.40;3.10;;;10.70;99.90;;;10.86;72.50;94597.84;4980749;28;20454;-57
2023/03/22 03:07:39;;;;;;;3.43;3.13;;;10.70;99.90;;;10.86;72.13;94603.94;4980964;28;20533;-56
2023/03/22 03:10:09;;;;;;;3.30;3.00;;;10.70;99.90;;;10.86;72.46;94593.44;4979808;28;20503;-53
2023/03/22 03:12:37;;;;;;;3.63;3.33;;;10.80;99.90;;;10.87;72.41;94599.50;4980483;28;20496;-53
2023/03/22 03:15:12;;;;;;;5.67;3.17;;;10.80;99.90;;;10.87;72.47;94600.31;4979884;28;20586;-56
2023/03/22 03:17:51;;;;;;;5.23;3.90;;;10.80;99.90;;;10.88;72.37;94598.53;4979640;28;20480;-54
2023/03/22 03:20:28;;;;;;;3.10;2.90;;;10.80;99.90;;;10.89;72.11;94603.66;4982244;28;20452;-59
2023/03/22 03:23:06;;;;;;;2.63;2.43;;;10.80;99.90;;;10.90;72.01;94599.22;4976229;28;20623;-56
2023/03/22 03:25:42;;;;;;;6.03;2.70;;;10.80;99.90;;;10.91;71.93;94603.50;4983018;28;20453;-54
2023/03/22 03:28:13;;;;;;;4.23;3.10;;;10.80;99.90;;;10.90;72.17;94601.84;4982315;28;20513;-55
2023/03/22 03:30:44;;;;;;;2.87;2.67;;;10.80;99.90;;;10.90;71.85;94596.59;4979912;28;20574;-55
2023/03/22 03:33:15;;;;;;;6.83;3.80;;;10.80;99.90;;;10.89;72.11;94602.81;4982706;28;20481;-58
2023/03/22 03:35:47;;;;;;;2.90;2.70;;;10.80;99.90;;;10.90;71.93;94599.22;4981342;28;21118;-56
2023/03/22 03:38:17;;;;;;;3.07;2.77;;;10.80;99.90;;;10.89;71.84;94600.19;4981566;28;20486;-57
2023/03/22 03:40:47;;;;;;;3.53;3.33;;;10.80;99.90;;;10.90;71.97;94604.47;4985953;28;20447;-54
2023/03/22 03:43:15;;;;;;;5.30;3.97;;;10.80;99.90;;;10.89;71.89;94597.53;4981776;28;20561;-55
2023/03/22 03:45:42;;;;;;;3.77;3.20;;;10.80;99.90;;;10.88;71.61;94607.25;4985977;28;20896;-56
2023/03/22 03:48:11;;;;;;;4.97;3.60;;;10.80;99.90;;;10.88;71.94;94609.06;4983377;28;20490;-56
2023/03/22 03:50:38;;;;;;;4.00;3.07;;;10.80;99.90;;;10.87;71.84;94610.03;4980935;28;20537;-57
2023/03/22 03:53:06;;;;;;;2.87;2.67;;;10.80;99.90;;;10.88;71.68;94614.34;4981957;28;20504;-56
2023/03/22 03:55:34;;;;;;;4.17;3.10;;;10.80;99.90;;;10.86;71.85;94617.09;4984115;28;20476;-56
2023/03/22 03:58:02;;;;;;;6.57;3.93;;;10.80;99.90;;;10.86;72.11;94614.47;4980636;28;20486;-56
2023/03/22 04:00:30;;;;;;;4.80;3.60;;;10.70;99.90;;;10.86;72.20;94624.16;4978970;28;20469;-56
2023/03/22 04:02:57;;;;;;;4.00;3.30;;;10.80;99.90;;;10.85;72.06;94623.34;4978841;28;20826;-56
2023/03/22 04:05:24;;;;;;;3.63;3.07;;;10.70;99.90;;;10.85;71.91;94617.25;4983249;28;20918;-57
2023/03/22 04:07:52;;;;;;;4.20;2.90;;;10.70;99.90;;;10.86;71.72;94618.88;4979617;28;20473;-55
2023/03/22 04:10:19;;;;;;;2.77;2.53;;;10.70;99.90;;;10.84;71.74;94626.94;4983779;28;20537;-56
2023/03/22 04:12:46;;;;;;;3.43;3.10;;;10.70;99.90;;;10.82;71.88;94628.06;5005690;28;20484;-57
2023/03/22 04:15:15;;;;;;;3.23;3.03;;;10.70;99.90;;;10.80;71.92;94635.25;5005756;28;20460;-58
2023/03/22 04:17:42;;;;;;;10.63;4.37;;;10.70;99.90;;;10.81;72.59;94636.94;5007791;28;20485;-55
2023/03/22 04:20:12;;;;;;;4.50;4.10;;;10.70;99.90;;;10.82;72.78;94630.72;4998881;28;20449;-56
2023/03/22 04:22:39;;;;;;;3.30;3.10;;;10.70;99.90;;;10.84;72.56;94624.31;4997773;28;20508;-56
2023/03/22 04:25:10;;;;;;;7.00;3.30;;;10.70;99.90;;;10.84;72.32;94631.38;5002490;28;20863;-56
2023/03/22 04:27:38;;;;;;;2.30;2.10;;;10.70;99.90;;;10.82;72.23;94633.34;5005133;28;20482;-56
2023/03/22 04:30:09;;;;;;;3.27;2.80;;;10.70;99.90;;;10.79;72.13;94629.19;4988643;28;20455;-56
2023/03/22 04:32:38;;;;;;;3.20;3.00;;;10.70;99.90;;;10.78;71.89;94630.16;5008682;28;20461;-56
2023/03/22 04:35:06;;;;;;;3.83;3.17;;;10.70;99.90;;;10.77;72.42;94631.97;5003932;28;20535;-56
2023/03/22 04:37:33;;;;;;;3.40;3.20;;;10.70;99.90;;;10.76;72.25;94635.56;5000318;28;20488;-57
2023/03/22 04:40:04;;;;;;;3.30;3.10;;;10.70;99.90;;;10.77;72.11;94641.66;4997168;28;20549;-53
2023/03/22 04:42:32;;;;;;;3.50;3.20;;;10.70;99.90;;;10.77;72.41;94637.22;5009201;28;20604;-55
2023/03/22 04:44:59;;;;;;;3.33;3.10;;;10.70;99.90;;;10.77;72.33;94639.84;5001091;28;20469;-58
2023/03/22 04:47:26;;;;;;;3.17;2.87;;;10.70;99.90;;;10.77;72.50;94639.84;5005254;28;20500;-59
2023/03/22 04:49:56;;;;;;;3.40;3.10;;;10.70;99.90;;;10.78;72.34;94645.94;5015237;28;20966;-57
2023/03/22 04:52:23;;;;;;;3.30;3.10;;;10.70;99.90;;;10.77;72.08;94642.47;4999712;28;20530;-56
2023/03/22 04:54:50;;;;;;;2.93;2.50;;;10.70;99.90;;;10.79;72.11;94644.16;4996343;28;20516;-55
2023/03/22 04:57:18;;;;;;;2.30;2.20;;;10.70;99.90;;;10.79;72.07;94644.16;5009850;28;20502;-57
2023/03/22 04:59:45;;;;;;;3.70;2.80;;;10.70;99.90;;;10.77;71.88;94650.38;5009627;28;20519;-58
2023/03/22 05:02:12;;;;;;;2.80;2.57;;;10.70;99.90;;;10.77;71.91;94647.75;4988984;28;20478;-56
2023/03/22 05:04:39;;;;;;;3.47;2.73;;;10.60;99.90;;;10.77;72.14;94652.19;5006403;28;20457;-56
2023/03/22 05:07:08;;;;;;;2.97;2.77;;;10.60;99.90;;;10.80;72.17;94653.69;5009043;28;20866;-56
2023/03/22 05:09:35;;;;;;;3.97;3.67;;;10.70;99.90;;;10.81;71.92;94655.34;4998475;28;20885;-55
2023/03/22 05:12:03;;;;;;;3.10;2.90;;;10.70;99.90;;;10.82;72.15;94657.84;5011893;28;20524;-56
2023/03/22 05:14:30;;;;;;;3.07;2.77;;;10.70;99.90;;;10.83;72.06;94654.25;5018015;28;20942;-56
2023/03/22 05:16:57;;;;;;;4.70;2.67;;;10.70;99.90;;;10.85;72.36;94660.16;5000488;28;20554;-59
2023/03/22 05:19:25;;;;;;;2.80;2.60;;;10.70;99.90;;;10.88;71.97;94664.31;5009865;28;20453;-57
2023/03/22 05:21:57;;;;;;;6.33;2.77;;;10.80;99.90;;;10.89;71.55;94665.97;5014352;28;20475;-57
2023/03/22 05:24:25;;;;;;;2.90;2.70;;;10.80;99.90;;;10.90;71.83;94667.63;5013165;28;20481;-56
2023/03/22 05:26:53;;;;;;;2.53;2.43;;;10.80;99.90;;;10.90;71.59;94667.63;4996249;28;21015;-52
2023/03/22 05:29:21;;;;;;;6.00;2.90;;;10.80;99.90;;;10.91;71.78;94680.63;5019623;28;21041;-58
2023/03/22 05:31:48;;;;;;;4.30;2.87;;;10.80;99.90;;;10.93;72.18;94683.13;5010255;28;21226;-57
2023/03/22 05:34:16;;;;;;;2.53;2.33;;;10.80;99.90;;;10.93;71.95;94672.59;5004023;28;20547;-56
2023/03/22 05:36:43;;;;;;;3.07;2.87;;;10.80;99.90;;;10.94;71.69;94680.34;5022728;28;20477;-54
2023/03/22 05:39:10;;;;;;;3.03;2.90;;;10.80;99.90;;;10.97;71.61;94683.66;5003475;28;20476;-55
2023/03/22 05:41:39;;;;;;;2.60;2.40;;;10.80;99.90;;;10.99;71.49;94677.28;5004430;28;20445;-55
2023/03/22 05:44:07;;;;;;;3.17;2.97;;;10.90;99.90;;;11.00;71.50;94678.94;5007337;28;20492;-56
2023/03/22 05:46:34;;;;;;;3.67;2.60;;;10.90;99.90;;;11.02;71.39;94682.25;5017813;28;20547;-53
2023/03/22 05:49:01;;;;;;;5.30;3.40;;;10.90;99.90;;;11.03;71.69;94683.91;5002321;28;20466;-54
2023/03/22 05:51:28;;;;;;;3.90;3.17;;;10.90;99.90;;;11.05;71.51;94681.13;5013560;28;20453;-54
2023/03/22 05:53:56;;;;;;;3.10;2.90;;;10.90;99.90;;;11.05;71.35;94674.03;5016373;28;20485;-58
2023/03/22 05:56:23;;;;;;;2.87;2.67;;;10.90;99.90;;;11.06;71.34;94678.34;5013368;28;20506;-56
2023/03/22 05:58:52;;;;;;;2.50;2.40;;;11.00;99.90;;;11.09;71.27;94688.59;5010648;28;20572;-56
2023/03/22 06:01:20;;;;;;;3.10;2.83;;;11.00;99.90;;;11.07;71.14;94693.16;5019676;28;20579;-56
2023/03/22 06:03:48;;;;;;;4.03;2.87;;;11.00;99.90;;;11.11;71.42;94697.16;5012178;28;20493;-56
2023/03/22 06:06:15;;;;;;;6.20;2.80;;;11.00;99.90;;;11.11;71.41;94697.16;5001537;28;20464;-55
2023/03/22 06:08:42;;;;;;;3.23;3.03;;;11.00;99.90;;;11.15;71.62;94702.13;5019182;28;20806;-57
2023/03/22 06:11:09;;;;;;;3.50;3.20;;;11.00;99.90;;;11.16;71.29;94703.78;5006738;28;20458;-55
2023/03/22 06:13:37;;;;;;;3.20;2.90;;;11.00;99.90;;;11.19;71.04;94708.75;5003200;28;20998;-55
2023/03/22 06:16:06;;;;;;;4.90;3.17;;;11.10;99.90;;;11.22;71.32;94708.47;5016930;28;20484;-57
2023/03/22 06:18:34;;;;;;;4.50;4.10;;;11.10;99.90;;;11.25;70.93;94700.25;5016178;28;20473;-56
2023/03/22 06:21:01;;;;;;;4.40;4.00;;;11.10;99.90;;;11.28;70.79;94702.59;5001957;28;20460;-57
2023/03/22 06:23:28;;;;;;;4.20;3.90;;;11.20;99.90;;;11.33;70.66;94705.59;5011727;28;20502;-56
2023/03/22 06:25:56;;;;;;;3.57;3.30;;;11.20;99.90;;;11.37;70.79;94709.63;5008592;28;20450;-56
2023/03/22 06:28:25;;;;;;;4.33;4.03;;;11.30;99.90;;;11.41;70.90;94708.31;5008691;28;20976;-57
2023/03/22 06:30:52;;;;;;;5.70;3.60;;;11.30;99.90;;;11.45;70.50;94707.06;5004755;28;20539;-57
2023/03/22 06:33:21;;;;;;;4.37;3.80;;;11.30;99.90;;;11.50;70.56;94713.69;5005942;28;20476;-56
2023/03/22 06:35:48;;;;;;;3.90;3.50;;;11.40;99.90;;;11.54;70.79;94715.03;5012207;28;20567;-58
2023/03/22 06:38:15;;;;;;;3.77;3.57;;;11.40;99.90;;;11.59;70.68;94713.63;5004304;28;20478;-53
2023/03/22 06:40:42;;;;;;;3.40;3.10;;;11.50;99.90;;;11.65;70.39;94715.66;5015163;28;20909;-56
2023/03/22 06:43:10;;;;;;;6.10;3.40;;;11.50;99.90;;;11.72;70.01;94713.22;5002951;28;20573;-58
2023/03/22 06:45:37;;;;;;;5.00;3.70;;;11.60;99.90;;;11.77;70.25;94718.91;4999281;28;20465;-56
2023/03/22 06:48:05;;;;;;;4.87;4.30;;;11.60;99.90;;;11.83;69.99;94722.72;5009030;28;20474;-56
2023/03/22 06:50:36;;;;;;;3.43;3.20;;;11.70;99.90;;;11.88;69.74;94725.72;5010178;28;20485;-55
2023/03/22 06:53:04;;;;;;;4.87;3.10;;;11.70;99.90;;;11.93;70.35;94725.28;5001884;28;20560;-57
2023/03/22 06:55:33;;;;;;;3.33;3.13;;;11.80;99.90;;;11.99;70.39;94722.06;5004749;28;20455;-55
2023/03/22 06:58:00;;;;;;;3.70;3.40;;;11.80;99.90;;;12.08;70.49;94726.41;5015334;28;20465;-56
2023/03/22 07:00:27;;;;;;;6.93;3.57;;;11.90;99.90;;;12.14;71.02;94725.78;5012153;28;20647;-55
2023/03/22 07:02:55;;;;;;;14.30;3.03;;;12.00;99.90;;;12.25;70.72;94731.81;4988792;28;20552;-57
2023/03/22 07:05:22;;;;;;;3.70;3.40;;;12.10;99.90;;;12.32;70.25;94736.31;5006400;28;20469;-57
2023/03/22 07:07:51;;;;;;;15.13;3.23;;;12.20;99.90;;;12.38;70.36;94737.53;5006822;28;20478;-56
2023/03/22 07:10:18;;;;;;;3.23;2.87;;;12.20;99.90;;;12.43;70.12;94742.34;4993123;28;20508;-56
2023/03/22 07:12:45;;;;;;;6.83;3.80;;;12.30;99.90;;;12.47;69.53;94733.97;5013263;28;20542;-56
2023/03/22 07:15:13;;;;;;;5.40;3.90;;;12.30;99.90;;;12.47;69.27;94733.97;4998109;28;20462;-56
2023/03/22 07:17:40;;;;;;;4.67;4.20;;;12.30;99.90;;;12.47;68.73;94736.59;4998802;28;20469;-56
2023/03/22 07:20:09;;;;;;;6.13;5.00;;;12.30;99.90;;;12.47;68.80;94741.88;5007980;28;20464;-56
2023/03/22 07:22:36;;;;;;;4.23;3.93;;;12.30;99.90;;;12.48;68.74;94738.25;5008409;28;20469;-53
2023/03/22 07:25:06;;;;;;;7.40;4.13;;;12.30;99.90;;;12.46;68.66;94749.94;4995407;28;21038;-54
2023/03/22 07:27:33;;;;;;;3.53;3.33;;;12.30;99.90;;;12.42;68.47;94746.78;4999796;28;20476;-54
2023/03/22 07:30:00;;;;;;;3.80;3.60;;;12.30;99.90;;;12.42;68.61;94749.41;5015627;28;20453;-54
2023/03/22 07:32:28;;;;;;;4.47;4.07;;;12.30;99.90;;;12.42;68.74;94754.69;5011172;28;20588;-56
2023/03/22 07:34:55;;;;;;;5.27;4.77;;;12.30;99.90;;;12.42;68.48;94759.97;4993367;28;20454;-57
2023/03/22 07:37:22;;;;;;;5.80;5.13;;;12.30;99.90;;;12.42;68.46;94764.41;5007640;28;20484;-56
2023/03/22 07:39:50;;;;;;;4.47;4.17;;;12.30;99.90;;;12.42;68.56;94762.59;5010901;28;20500;-55
2023/03/22 07:42:18;;;;;;;6.10;5.20;;;12.20;99.90;;;12.41;68.50;94763.59;4995450;28;20486;-54
2023/03/22 07:44:48;;;;;;;15.03;5.43;;;12.20;99.90;;;12.41;68.36;94762.75;5016195;28;20499;-57
2023/03/22 07:47:15;;;;;;;7.30;4.23;;;12.30;99.90;;;12.38;68.67;94767.38;5002871;28;20542;-57
2023/03/22 07:49:43;;;;;;;3.80;3.50;;;12.30;99.90;;;12.40;68.56;94775.13;5001078;28;20442;-57
2023/03/22 07:52:11;;;;;;;4.93;4.43;;;12.30;99.90;;;12.39;68.51;94773.44;5010649;28;20476;-56
2023/03/22 07:54:38;;;;;;;6.70;4.23;;;12.20;99.90;;;12.37;68.38;94770.97;5005193;28;20456;-55
2023/03/22 07:57:06;;;;;;;6.10;4.30;;;12.30;99.90;;;12.34;68.40;94768.63;4997713;28;20506;-57
2023/03/22 07:59:35;;;;;;;8.03;4.93;;;12.20;99.90;;;12.31;68.22;94776.84;5009461;28;20538;-56
2023/03/22 08:02:03;;;;;;;4.90;3.63;;;12.20;99.90;;;12.32;68.26;94780.34;5015346;28;20477;-57
2023/03/22 08:04:30;;;;;;;2.70;2.50;;;12.20;99.90;;;12.31;67.85;94781.31;5000498;28;20580;-54
2023/03/22 08:06:58;;;;;;;5.77;5.30;;;12.20;99.90;;;12.30;67.67;94782.28;4997607;28;20505;-58
2023/03/22 08:09:26;;;;;;;3.50;3.30;;;12.10;99.90;;;12.25;67.45;94784.56;5010558;28;20564;-58
2023/03/22 08:11:53;;;;;;;3.70;3.40;;;12.10;99.90;;;12.22;67.11;94779.59;5009828;28;20583;-55
2023/03/22 08:14:21;;;;;;;3.07;2.80;;;12.10;99.90;;;12.22;68.30;94779.59;4998008;28;20454;-57
2023/03/22 08:16:49;;;;;;;2.87;2.50;;;12.10;99.90;;;12.23;69.89;94789.16;5013336;28;20481;-54
2023/03/22 08:19:17;;;;;;;2.67;2.50;;;12.10;99.90;;;12.28;69.39;94778.97;5005014;28;20450;-57
2023/03/22 08:21:44;;;;;;;6.30;2.90;;;12.10;99.90;;;12.29;69.18;94784.09;5004111;28;20474;-56
2023/03/22 08:24:12;;;;;;;3.13;2.93;;;12.10;99.90;;;12.30;68.25;94784.91;5003919;28;20497;-56
2023/03/22 08:26:39;;;;;;;3.80;3.60;;;12.10;99.90;;;12.27;67.52;94785.22;5000759;28;20477;-55
2023/03/22 08:29:06;;;;;;;4.03;3.77;;;12.10;99.90;;;12.26;67.71;94794.13;5000701;28;20451;-56
2023/03/22 08:31:34;;;;;;;3.53;3.23;;;12.10;99.90;;;12.25;67.84;94789.84;4994355;28;20927;-56
2023/03/22 08:34:02;;;;;;;3.30;3.10;;;12.10;99.90;;;12.24;67.88;94796.06;5016299;28;20954;-55
2023/03/22 08:36:30;;;;;;;3.53;3.23;;;12.10;99.90;;;12.23;68.09;94797.06;4994740;28;20537;-55
2023/03/22 08:38:58;;;;;;;3.27;3.07;;;12.10;99.90;;;12.23;68.27;94792.63;4998347;28;20815;-57
2023/03/22 08:41:25;;;;;;;3.33;3.13;;;12.10;99.90;;;12.22;68.15;94796.22;5015274;28;20959;-56
2023/03/22 08:43:52;;;;;;;4.40;2.73;;;12.10;99.90;;;12.22;68.14;94803.31;5014353;28;20531;-55
2023/03/22 08:46:19;;;;;;;3.37;3.17;;;12.10;99.90;;;12.19;68.21;94802.66;4993860;28;20451;-54
2023/03/22 08:48:49;;;;;;;3.40;3.20;;;12.10;99.90;;;12.19;68.22;94800.00;5011036;28;20445;-58
2023/03/22 08:51:21;;;;;;;3.60;3.30;;;12.00;99.90;;;12.18;68.12;94806.25;5011007;28;20455;-54
2023/03/22 08:53:48;;;;;;;4.07;3.67;;;12.10;99.90;;;12.19;68.66;94804.44;5007589;28;20452;-56
2023/03/22 08:56:16;;;;;;;6.40;3.53;;;12.00;99.90;;;12.17;68.45;94799.31;5009437;28;20468;-57
2023/03/22 08:58:45;;;;;;;8.23;3.50;;;12.00;99.90;;;12.21;68.47;94799.88;5015619;28;20481;-56
2023/03/22 09:01:13;;;;;;;3.80;3.50;;;12.10;99.90;;;12.23;68.57;94805.81;5006300;28;20496;-57
2023/03/22 09:03:41;;;;;;;3.30;3.10;;;12.10;99.90;;;12.26;68.52;94807.31;5004868;28;20497;-57
2023/03/22 09:06:09;;;;;;;3.37;3.07;;;12.10;99.90;;;12.28;68.76;94810.63;5020623;28;20965;-56
2023/03/22 09:08:38;;;;;;;3.13;2.93;;;12.10;99.90;;;12.30;68.42;94806.03;4999004;28;20548;-57
2023/03/22 09:11:08;;;;;;;3.47;2.40;;;12.20;99.90;;;12.32;68.51;94806.72;5008048;28;20452;-58
2023/03/22 09:13:35;;;;;;;2.50;2.30;;;12.20;99.90;;;12.36;68.67;94813.31;5012991;28;20543;-58
2023/03/22 09:16:03;;;;;;;1.83;1.73;;;12.20;99.90;;;12.37;68.63;94810.53;5007514;28;20469;-58
2023/03/22 09:18:30;;;;;;;1.80;1.70;;;12.20;99.90;;;12.40;68.49;94814.69;4995110;28;20539;-55
2023/03/22 09:20:57;;;;;;;3.43;1.63;;;12.30;99.90;;;12.44;68.22;94816.06;5014094;28;20494;-57
2023/03/22 09:23:25;;;;;;;1.70;1.60;;;12.30;99.90;;;12.43;68.26;94819.66;5013125;28;21034;-57
2023/03/22 09:25:53;;;;;;;3.13;1.93;;;12.30;99.90;;;12.43;68.21;94809.09;4993074;28;20462;-54
2023/03/22 09:28:22;;;;;;;2.70;1.80;;;12.30;99.90;;;12.41;68.16;94808.44;5012769;28;20469;-53
2023/03/22 09:30:50;;;;;;;1.90;1.80;;;12.30;99.90;;;12.40;68.29;94814.69;5007226;28;20549;-55
2023/03/22 09:33:17;;;;;;;6.60;1.93;;;12.30;99.90;;;12.39;68.47;94813.03;5007777;28;20489;-57
2023/03/22 09:35:44;;;;;;;2.13;2.00;;;12.30;99.90;;;12.39;68.54;94818.28;5008434;28;20885;-56
2023/03/22 09:38:12;;;;;;;3.17;2.50;;;12.30;99.90;;;12.39;68.67;94813.03;5017467;28;20473;-57
2023/03/22 09:40:44;;;;;;;2.93;2.70;;;12.30;99.90;;;12.37;68.22;94807.91;5012266;28;20836;-55
2023/03/22 09:43:13;;;;;;;2.60;2.40;;;12.30;99.90;;;12.37;68.27;94807.91;5003572;28;20471;-55
2023/03/22 09:45:43;;;;;;;1.87;1.77;;;12.20;99.90;;;12.38;68.29;94811.38;5014019;28;20494;-55
2023/03/22 09:48:14;;;;;;;2.10;1.90;;;12.20;99.90;;;12.38;68.10;94814.03;5003698;28;20477;-56
2023/03/22 09:50:46;;;;;;;5.33;3.07;;;12.20;99.90;;;12.38;68.06;94814.84;4995723;28;20951;-57
2023/03/22 09:53:15;;;;;;;2.37;2.17;;;12.30;99.90;;;12.41;68.23;94811.06;5019623;28;20495;-56
2023/03/22 09:55:46;;;;;;;2.03;1.90;;;12.30;99.90;;;12.42;67.87;94810.06;5013375;28;20520;-55
2023/03/22 09:58:21;;;;;;;2.40;2.20;;;12.30;99.90;;;12.45;67.78;94817.69;4999429;28;20453;-56
2023/03/22 10:16:28;;;;;;;2.10;1.70;;;12.40;99.90;;;12.50;67.84;94815.44;5011695;28;20436;-55
2023/03/22 10:19:01;;;;;;;5.23;1.63;;;12.40;99.90;;;12.51;67.31;94819.72;5004789;28;20465;-56
2023/03/22 10:21:28;;;;;;;1.50;1.40;;;12.40;99.90;;;12.54;67.72;94821.22;5004910;28;20455;-58
2023/03/22 10:23:57;;;;;;;1.97;1.40;;;12.40;99.90;;;12.56;67.34;94819.25;5001424;28;20453;-58
2023/03/22 10:26:28;;;;;;;1.73;1.63;;;12.40;99.90;;;12.54;67.63;94827.31;5017849;28;20600;-57
2023/03/22 10:28:58;;;;;;;1.63;1.53;;;12.40;99.90;;;12.58;67.80;94824.38;5000370;28;20458;-55
2023/03/22 10:31:27;;;;;;;2.83;1.30;;;12.40;99.90;;;12.55;67.26;94823.72;5008425;28;20503;-57
2023/03/22 10:33:57;;;;;;;2.93;1.60;;;12.40;99.90;;;12.54;67.20;94816.78;5018102;28;20533;-56
2023/03/22 10:36:27;;;;;;;1.53;1.40;;;12.40;99.90;;;12.56;67.25;94819.25;5013198;28;20508;-55
2023/03/22 10:38:56;;;;;;;1.50;1.40;;;12.40;99.90;;;12.58;67.36;94817.31;5007262;28;20511;-56
2023/03/22 10:41:24;;;;;;;3.27;1.80;;;12.50;99.90;;;12.62;67.44;94820.47;5019408;28;20461;-54
2023/03/22 10:43:54;;;;;;;1.30;1.20;;;12.50;99.90;;;12.64;67.43;94814.06;4996824;28;20454;-54
2023/03/22 10:46:24;;;;;;;1.40;1.30;;;12.50;99.90;;;12.67;67.67;94815.53;5008699;28;21013;-58